Terminal Aerodrome Forecast
Issued by NWS Sterling, VA

Current Version | Previous Version | Graphics & Text | Print | Product List | Glossary On
Versions: 1 2 3 4 5 6 7 8 9 10 11 12 13 14 15 16 17 18 19 20 21
000
FTUS41 KLWX 282333
TAFDCA
TAF
KDCA 282333Z 2900/2924 10010KT P6SM OVC015
     FM290100 10011KT 3SM +SHRA VCTS OVC010CB
     FM291000 09010KT 2SM SHRA OVC008
     FM291800 09011KT 1SM +SHRA OVC008=

USA.gov is the U.S. government's official web portal to all federal, state and local government web resources and services.